sensor_id;sensor_type;location;lat;lon;timestamp;temperature;humidity
59703;DHT22;45570;48.782;8.332;2023-05-14T00:00:10;9.50;99.90
59703;DHT22;45570;48.782;8.332;2023-05-14T00:02:40;9.60;99.90
59703;DHT22;45570;48.782;8.332;2023-05-14T00:05:09;9.70;99.90
59703;DHT22;45570;48.782;8.332;2023-05-14T00:07:38;9.70;99.90
59703;DHT22;45570;48.782;8.332;2023-05-14T00:10:09;9.80;99.90
59703;DHT22;45570;48.782;8.332;2023-05-14T00:12:39;9.90;99.90
59703;DHT22;45570;48.782;8.332;2023-05-14T00:15:08;9.90;99.90
59703;DHT22;45570;48.782;8.332;2023-05-14T00:17:38;9.90;99.90
59703;DHT22;45570;48.782;8.332;2023-05-14T00:20:10;9.90;99.90
59703;DHT22;45570;48.782;8.332;2023-05-14T00:22:39;9.90;99.90
59703;DHT22;45570;48.782;8.332;2023-05-14T00:25:09;10.10;99.90
59703;DHT22;45570;48.782;8.332;2023-05-14T00:27:39;10.00;99.90
59703;DHT22;45570;48.782;8.332;2023-05-14T00:30:08;9.90;99.90
59703;DHT22;45570;48.782;8.332;2023-05-14T00:32:38;9.80;99.90
59703;DHT22;45570;48.782;8.332;2023-05-14T00:35:08;9.60;99.90
59703;DHT22;45570;48.782;8.332;2023-05-14T00:37:37;9.60;99.90
59703;DHT22;45570;48.782;8.332;2023-05-14T00:40:09;9.50;99.90
59703;DHT22;45570;48.782;8.332;2023-05-14T00:42:39;9.40;99.90
59703;DHT22;45570;48.782;8.332;2023-05-14T00:45:09;9.30;99.90
59703;DHT22;45570;48.782;8.332;2023-05-14T00:47:38;9.30;99.90
59703;DHT22;45570;48.782;8.332;2023-05-14T00:50:08;9.30;99.90
59703;DHT22;45570;48.782;8.332;2023-05-14T00:52:38;9.10;99.90
59703;DHT22;45570;48.782;8.332;2023-05-14T00:55:11;9.10;99.90
59703;DHT22;45570;48.782;8.332;2023-05-14T00:57:43;9.00;99.90
59703;DHT22;45570;48.782;8.332;2023-05-14T01:00:13;9.00;99.90
59703;DHT22;45570;48.782;8.332;2023-05-14T01:02:42;8.90;99.90
59703;DHT22;45570;48.782;8.332;2023-05-14T01:05:11;8.90;99.90
59703;DHT22;45570;48.782;8.332;2023-05-14T01:07:47;8.90;99.90
59703;DHT22;45570;48.782;8.332;2023-05-14T01:10:22;8.80;99.90
59703;DHT22;45570;48.782;8.332;2023-05-14T01:12:59;8.70;99.90
59703;DHT22;45570;48.782;8.332;2023-05-14T01:15:32;8.70;99.90
59703;DHT22;45570;48.782;8.332;2023-05-14T01:18:04;8.70;99.90
59703;DHT22;45570;48.782;8.332;2023-05-14T01:20:35;8.70;99.90
59703;DHT22;45570;48.782;8.332;2023-05-14T01:23:05;8.70;99.90
59703;DHT22;45570;48.782;8.332;2023-05-14T01:25:34;8.60;99.90
59703;DHT22;45570;48.782;8.332;2023-05-14T01:28:08;8.70;99.90
59703;DHT22;45570;48.782;8.332;2023-05-14T01:30:40;8.60;99.90
59703;DHT22;45570;48.782;8.332;2023-05-14T01:33:12;8.60;99.90
59703;DHT22;45570;48.782;8.332;2023-05-14T01:35:42;8.60;99.90
59703;DHT22;45570;48.782;8.332;2023-05-14T01:38:14;8.50;99.90
59703;DHT22;45570;48.782;8.332;2023-05-14T01:40:45;8.60;99.90
59703;DHT22;45570;48.782;8.332;2023-05-14T01:43:15;8.50;99.90
59703;DHT22;45570;48.782;8.332;2023-05-14T01:45:44;8.40;99.90
59703;DHT22;45570;48.782;8.332;2023-05-14T01:48:14;8.40;99.90
59703;DHT22;45570;48.782;8.332;2023-05-14T01:50:43;8.40;99.90
59703;DHT22;45570;48.782;8.332;2023-05-14T01:53:13;8.40;99.90
59703;DHT22;45570;48.782;8.332;2023-05-14T01:55:42;8.30;99.90
59703;DHT22;45570;48.782;8.332;2023-05-14T01:58:13;8.30;99.90
59703;DHT22;45570;48.782;8.332;2023-05-14T02:00:43;8.20;99.90
59703;DHT22;45570;48.782;8.332;2023-05-14T02:03:12;8.20;99.90
59703;DHT22;45570;48.782;8.332;2023-05-14T02:05:41;8.10;99.90
59703;DHT22;45570;48.782;8.332;2023-05-14T02:08:09;8.30;99.90
59703;DHT22;45570;48.782;8.332;2023-05-14T02:10:40;8.30;99.90
59703;DHT22;45570;48.782;8.332;2023-05-14T02:13:09;8.30;99.90
59703;DHT22;45570;48.782;8.332;2023-05-14T02:15:38;8.20;99.90
59703;DHT22;45570;48.782;8.332;2023-05-14T02:18:08;8.20;99.90
59703;DHT22;45570;48.782;8.332;2023-05-14T02:20:37;8.10;99.90
59703;DHT22;45570;48.782;8.332;2023-05-14T02:23:06;8.10;99.90
59703;DHT22;45570;48.782;8.332;2023-05-14T02:25:35;8.00;99.90
59703;DHT22;45570;48.782;8.332;2023-05-14T02:28:06;8.00;99.90
59703;DHT22;45570;48.782;8.332;2023-05-14T02:30:35;8.00;99.90
59703;DHT22;45570;48.782;8.332;2023-05-14T02:33:04;8.00;99.90
59703;DHT22;45570;48.782;8.332;2023-05-14T02:35:33;8.00;99.90
59703;DHT22;45570;48.782;8.332;2023-05-14T02:38:03;8.00;99.90
59703;DHT22;45570;48.782;8.332;2023-05-14T02:40:32;8.00;99.90
59703;DHT22;45570;48.782;8.332;2023-05-14T02:43:01;8.00;99.90
59703;DHT22;45570;48.782;8.332;2023-05-14T02:45:32;8.00;99.90
59703;DHT22;45570;48.782;8.332;2023-05-14T02:48:00;7.90;99.90
59703;DHT22;45570;48.782;8.332;2023-05-14T02:50:30;7.90;99.90
59703;DHT22;45570;48.782;8.332;2023-05-14T02:52:59;7.90;99.90
59703;DHT22;45570;48.782;8.332;2023-05-14T02:55:28;7.90;99.90
59703;DHT22;45570;48.782;8.332;2023-05-14T02:57:57;8.00;99.90
59703;DHT22;45570;48.782;8.332;2023-05-14T03:00:26;8.00;99.90
59703;DHT22;45570;48.782;8.332;2023-05-14T03:02:57;8.00;99.90
59703;DHT22;45570;48.782;8.332;2023-05-14T03:05:26;8.00;99.90
59703;DHT22;45570;48.782;8.332;2023-05-14T03:07:56;8.00;99.90
59703;DHT22;45570;48.782;8.332;2023-05-14T03:10:25;8.00;99.90
59703;DHT22;45570;48.782;8.332;2023-05-14T03:12:54;8.00;99.90
59703;DHT22;45570;48.782;8.332;2023-05-14T03:15:23;8.00;99.90
59703;DHT22;45570;48.782;8.332;2023-05-14T03:17:52;8.00;99.90
59703;DHT22;45570;48.782;8.332;2023-05-14T03:20:23;8.10;99.90
59703;DHT22;45570;48.782;8.332;2023-05-14T03:22:52;8.10;99.90
59703;DHT22;45570;48.782;8.332;2023-05-14T03:25:22;8.10;99.90
59703;DHT22;45570;48.782;8.332;2023-05-14T03:27:51;8.30;99.90
59703;DHT22;45570;48.782;8.332;2023-05-14T03:30:20;8.30;99.90
59703;DHT22;45570;48.782;8.332;2023-05-14T03:32:49;8.40;99.90
59703;DHT22;45570;48.782;8.332;2023-05-14T03:35:18;8.40;99.90
59703;DHT22;45570;48.782;8.332;2023-05-14T03:37:48;8.50;99.90
59703;DHT22;45570;48.782;8.332;2023-05-14T03:40:19;8.50;99.90
59703;DHT22;45570;48.782;8.332;2023-05-14T03:42:49;8.50;99.90
59703;DHT22;45570;48.782;8.332;2023-05-14T03:45:19;8.50;99.90
59703;DHT22;45570;48.782;8.332;2023-05-14T03:47:48;8.50;99.90
59703;DHT22;45570;48.782;8.332;2023-05-14T03:50:17;8.50;99.90
59703;DHT22;45570;48.782;8.332;2023-05-14T03:52:48;8.50;99.90
59703;DHT22;45570;48.782;8.332;2023-05-14T03:55:18;8.50;99.90
59703;DHT22;45570;48.782;8.332;2023-05-14T03:57:47;8.50;99.90
59703;DHT22;45570;48.782;8.332;2023-05-14T04:00:16;8.50;99.90
59703;DHT22;45570;48.782;8.332;2023-05-14T04:02:45;8.50;99.90
59703;DHT22;45570;48.782;8.332;2023-05-14T04:05:14;8.50;99.90
59703;DHT22;45570;48.782;8.332;2023-05-14T04:07:44;8.50;99.90
59703;DHT22;45570;48.782;8.332;2023-05-14T04:10:15;8.60;99.90
59703;DHT22;45570;48.782;8.332;2023-05-14T04:12:44;8.70;99.90
59703;DHT22;45570;48.782;8.332;2023-05-14T04:15:13;8.70;99.90
59703;DHT22;45570;48.782;8.332;2023-05-14T04:17:42;8.70;99.90
59703;DHT22;45570;48.782;8.332;2023-05-14T04:20:12;8.70;99.90
59703;DHT22;45570;48.782;8.332;2023-05-14T04:22:41;8.80;99.90
59703;DHT22;45570;48.782;8.332;2023-05-14T04:25:09;8.90;99.90
59703;DHT22;45570;48.782;8.332;2023-05-14T04:27:40;8.90;99.90
59703;DHT22;45570;48.782;8.332;2023-05-14T04:30:10;9.10;99.90
59703;DHT22;45570;48.782;8.332;2023-05-14T04:32:39;9.10;99.90
59703;DHT22;45570;48.782;8.332;2023-05-14T04:35:08;9.10;99.90
59703;DHT22;45570;48.782;8.332;2023-05-14T04:37:37;9.10;99.90
59703;DHT22;45570;48.782;8.332;2023-05-14T04:40:08;9.10;99.90
59703;DHT22;45570;48.782;8.332;2023-05-14T04:42:40;9.10;99.90
59703;DHT22;45570;48.782;8.332;2023-05-14T04:45:10;9.20;99.90
59703;DHT22;45570;48.782;8.332;2023-05-14T04:47:41;9.30;99.90
59703;DHT22;45570;48.782;8.332;2023-05-14T04:50:11;9.30;99.90
59703;DHT22;45570;48.782;8.332;2023-05-14T04:52:41;9.30;99.90
59703;DHT22;45570;48.782;8.332;2023-05-14T04:55:10;9.40;99.90
59703;DHT22;45570;48.782;8.332;2023-05-14T04:57:40;9.50;99.90
59703;DHT22;45570;48.782;8.332;2023-05-14T05:00:11;9.50;99.90
59703;DHT22;45570;48.782;8.332;2023-05-14T05:02:41;9.60;99.90
59703;DHT22;45570;48.782;8.332;2023-05-14T05:05:10;9.70;99.90
59703;DHT22;45570;48.782;8.332;2023-05-14T05:07:39;9.80;99.90
59703;DHT22;45570;48.782;8.332;2023-05-14T05:10:08;9.80;99.90
59703;DHT22;45570;48.782;8.332;2023-05-14T05:12:37;9.80;99.90
59703;DHT22;45570;48.782;8.332;2023-05-14T05:15:08;9.90;99.90
59703;DHT22;45570;48.782;8.332;2023-05-14T05:17:37;9.90;99.90
59703;DHT22;45570;48.782;8.332;2023-05-14T05:20:07;9.90;99.90
59703;DHT22;45570;48.782;8.332;2023-05-14T05:22:36;10.00;99.90
59703;DHT22;45570;48.782;8.332;2023-05-14T05:25:06;10.10;99.90
59703;DHT22;45570;48.782;8.332;2023-05-14T05:27:35;10.20;99.90
59703;DHT22;45570;48.782;8.332;2023-05-14T05:30:08;10.20;99.90
59703;DHT22;45570;48.782;8.332;2023-05-14T05:32:37;10.20;99.90
59703;DHT22;45570;48.782;8.332;2023-05-14T05:35:06;10.40;99.90
59703;DHT22;45570;48.782;8.332;2023-05-14T05:37:35;10.40;99.90
59703;DHT22;45570;48.782;8.332;2023-05-14T05:40:05;10.60;99.90
59703;DHT22;45570;48.782;8.332;2023-05-14T05:42:35;10.70;99.90
59703;DHT22;45570;48.782;8.332;2023-05-14T05:45:07;10.80;99.90
59703;DHT22;45570;48.782;8.332;2023-05-14T05:47:36;10.90;99.90
59703;DHT22;45570;48.782;8.332;2023-05-14T05:50:07;11.10;99.90
59703;DHT22;45570;48.782;8.332;2023-05-14T05:52:37;11.30;99.90
59703;DHT22;45570;48.782;8.332;2023-05-14T05:55:07;11.50;99.90
59703;DHT22;45570;48.782;8.332;2023-05-14T05:57:36;11.70;99.90
59703;DHT22;45570;48.782;8.332;2023-05-14T06:00:08;11.90;99.90
59703;DHT22;45570;48.782;8.332;2023-05-14T06:02:40;12.00;99.90
59703;DHT22;45570;48.782;8.332;2023-05-14T06:05:10;12.10;99.90
59703;DHT22;45570;48.782;8.332;2023-05-14T06:07:39;12.20;99.90
59703;DHT22;45570;48.782;8.332;2023-05-14T06:10:08;12.40;99.90
59703;DHT22;45570;48.782;8.332;2023-05-14T06:12:37;12.50;99.90
59703;DHT22;45570;48.782;8.332;2023-05-14T06:15:09;12.60;99.90
59703;DHT22;45570;48.782;8.332;2023-05-14T06:17:38;12.70;99.90
59703;DHT22;45570;48.782;8.332;2023-05-14T06:20:08;13.10;99.90
59703;DHT22;45570;48.782;8.332;2023-05-14T06:22:37;13.40;99.90
59703;DHT22;45570;48.782;8.332;2023-05-14T06:25:07;13.80;99.90
59703;DHT22;45570;48.782;8.332;2023-05-14T06:27:36;14.10;99.90
59703;DHT22;45570;48.782;8.332;2023-05-14T06:30:08;14.40;99.90
59703;DHT22;45570;48.782;8.332;2023-05-14T06:32:38;14.70;99.90
59703;DHT22;45570;48.782;8.332;2023-05-14T06:35:07;15.00;99.90
59703;DHT22;45570;48.782;8.332;2023-05-14T06:37:36;15.20;99.90
59703;DHT22;45570;48.782;8.332;2023-05-14T06:40:06;15.30;99.90
59703;DHT22;45570;48.782;8.332;2023-05-14T06:42:35;15.50;99.90
59703;DHT22;45570;48.782;8.332;2023-05-14T06:45:06;15.60;99.90
59703;DHT22;45570;48.782;8.332;2023-05-14T06:47:36;15.90;99.90
59703;DHT22;45570;48.782;8.332;2023-05-14T06:50:06;16.20;99.90
59703;DHT22;45570;48.782;8.332;2023-05-14T06:52:37;16.30;99.90
59703;DHT22;45570;48.782;8.332;2023-05-14T06:55:07;16.30;99.90
59703;DHT22;45570;48.782;8.332;2023-05-14T06:57:37;16.10;99.90
59703;DHT22;45570;48.782;8.332;2023-05-14T07:00:08;16.30;99.90
59703;DHT22;45570;48.782;8.332;2023-05-14T07:02:38;16.70;99.90
59703;DHT22;45570;48.782;8.332;2023-05-14T07:05:08;17.00;99.90
59703;DHT22;45570;48.782;8.332;2023-05-14T07:07:37;17.30;99.90
59703;DHT22;45570;48.782;8.332;2023-05-14T07:10:07;17.60;99.90
59703;DHT22;45570;48.782;8.332;2023-05-14T07:12:36;17.80;99.90
59703;DHT22;45570;48.782;8.332;2023-05-14T07:15:06;18.10;99.90
59703;DHT22;45570;48.782;8.332;2023-05-14T07:17:35;18.30;99.90
59703;DHT22;45570;48.782;8.332;2023-05-14T07:20:07;18.40;99.90
59703;DHT22;45570;48.782;8.332;2023-05-14T07:22:36;18.60;99.90
59703;DHT22;45570;48.782;8.332;2023-05-14T07:25:06;18.70;99.90
59703;DHT22;45570;48.782;8.332;2023-05-14T07:27:35;18.60;99.90
59703;DHT22;45570;48.782;8.332;2023-05-14T07:30:05;18.60;99.90
59703;DHT22;45570;48.782;8.332;2023-05-14T07:32:34;18.60;99.90
59703;DHT22;45570;48.782;8.332;2023-05-14T07:35:03;18.70;99.90
59703;DHT22;45570;48.782;8.332;2023-05-14T07:37:34;18.90;99.90
59703;DHT22;45570;48.782;8.332;2023-05-14T07:40:04;18.90;99.90
59703;DHT22;45570;48.782;8.332;2023-05-14T07:42:33;19.00;99.90
59703;DHT22;45570;48.782;8.332;2023-05-14T07:45:04;19.10;99.90
59703;DHT22;45570;48.782;8.332;2023-05-14T07:47:33;18.90;99.90
59703;DHT22;45570;48.782;8.332;2023-05-14T07:50:03;19.00;99.90
59703;DHT22;45570;48.782;8.332;2023-05-14T07:52:33;19.40;99.90
59703;DHT22;45570;48.782;8.332;2023-05-14T07:55:03;19.40;99.90
59703;DHT22;45570;48.782;8.332;2023-05-14T07:57:32;19.70;99.90
59703;DHT22;45570;48.782;8.332;2023-05-14T08:00:01;19.80;99.90
59703;DHT22;45570;48.782;8.332;2023-05-14T08:02:38;19.80;99.90
59703;DHT22;45570;48.782;8.332;2023-05-14T08:05:09;19.80;99.90
59703;DHT22;45570;48.782;8.332;2023-05-14T08:07:39;19.60;99.90
59703;DHT22;45570;48.782;8.332;2023-05-14T08:10:09;19.30;99.90
59703;DHT22;45570;48.782;8.332;2023-05-14T08:12:38;19.40;99.90
59703;DHT22;45570;48.782;8.332;2023-05-14T08:15:08;19.30;99.90
59703;DHT22;45570;48.782;8.332;2023-05-14T08:17:38;18.90;99.90
59703;DHT22;45570;48.782;8.332;2023-05-14T08:20:08;18.70;99.90
59703;DHT22;45570;48.782;8.332;2023-05-14T08:22:40;18.80;99.90
59703;DHT22;45570;48.782;8.332;2023-05-14T08:25:09;19.00;99.90
59703;DHT22;45570;48.782;8.332;2023-05-14T08:27:38;19.00;99.90
59703;DHT22;45570;48.782;8.332;2023-05-14T08:30:08;18.70;99.90
59703;DHT22;45570;48.782;8.332;2023-05-14T08:32:37;18.40;99.90
59703;DHT22;45570;48.782;8.332;2023-05-14T08:35:07;18.30;99.90
59703;DHT22;45570;48.782;8.332;2023-05-14T08:37:38;18.00;99.90
59703;DHT22;45570;48.782;8.332;2023-05-14T08:40:09;17.50;99.90
59703;DHT22;45570;48.782;8.332;2023-05-14T08:42:38;17.40;99.90
59703;DHT22;45570;48.782;8.332;2023-05-14T08:45:12;17.30;99.90
59703;DHT22;45570;48.782;8.332;2023-05-14T08:47:47;17.20;99.90
59703;DHT22;45570;48.782;8.332;2023-05-14T08:50:17;17.30;99.90
59703;DHT22;45570;48.782;8.332;2023-05-14T08:52:52;17.60;99.90
59703;DHT22;45570;48.782;8.332;2023-05-14T08:55:21;18.30;99.90
59703;DHT22;45570;48.782;8.332;2023-05-14T08:57:50;18.70;99.90
59703;DHT22;45570;48.782;8.332;2023-05-14T09:00:19;18.80;99.90
59703;DHT22;45570;48.782;8.332;2023-05-14T09:02:50;19.10;99.90
59703;DHT22;45570;48.782;8.332;2023-05-14T09:05:20;19.10;99.90
59703;DHT22;45570;48.782;8.332;2023-05-14T09:07:52;19.20;99.90
59703;DHT22;45570;48.782;8.332;2023-05-14T09:10:21;19.80;99.90
59703;DHT22;45570;48.782;8.332;2023-05-14T09:12:51;20.10;99.90
59703;DHT22;45570;48.782;8.332;2023-05-14T09:15:20;19.60;99.90
59703;DHT22;45570;48.782;8.332;2023-05-14T09:17:49;19.10;99.90
59703;DHT22;45570;48.782;8.332;2023-05-14T09:20:20;18.70;99.90
59703;DHT22;45570;48.782;8.332;2023-05-14T09:22:53;18.60;99.90
59703;DHT22;45570;48.782;8.332;2023-05-14T09:25:26;18.30;99.90
59703;DHT22;45570;48.782;8.332;2023-05-14T09:27:55;18.30;99.90
59703;DHT22;45570;48.782;8.332;2023-05-14T09:30:25;18.20;99.90
59703;DHT22;45570;48.782;8.332;2023-05-14T09:32:54;18.30;99.90
59703;DHT22;45570;48.782;8.332;2023-05-14T09:35:24;18.40;99.90
59703;DHT22;45570;48.782;8.332;2023-05-14T09:37:54;18.60;99.90
59703;DHT22;45570;48.782;8.332;2023-05-14T09:40:23;18.70;99.90
59703;DHT22;45570;48.782;8.332;2023-05-14T09:42:53;18.80;99.90
59703;DHT22;45570;48.782;8.332;2023-05-14T09:45:22;18.60;99.90
59703;DHT22;45570;48.782;8.332;2023-05-14T09:47:51;18.40;99.90
59703;DHT22;45570;48.782;8.332;2023-05-14T09:50:21;18.50;99.90
59703;DHT22;45570;48.782;8.332;2023-05-14T09:52:50;18.40;99.90
59703;DHT22;45570;48.782;8.332;2023-05-14T09:55:21;18.40;99.90
59703;DHT22;45570;48.782;8.332;2023-05-14T09:57:50;18.60;99.90
59703;DHT22;45570;48.782;8.332;2023-05-14T10:00:20;18.80;99.90
59703;DHT22;45570;48.782;8.332;2023-05-14T10:02:50;18.90;99.90
59703;DHT22;45570;48.782;8.332;2023-05-14T10:05:22;18.90;99.90
59703;DHT22;45570;48.782;8.332;2023-05-14T10:07:55;19.00;99.90
59703;DHT22;45570;48.782;8.332;2023-05-14T10:10:28;19.20;99.90
59703;DHT22;45570;48.782;8.332;2023-05-14T10:12:59;19.60;99.90
59703;DHT22;45570;48.782;8.332;2023-05-14T10:15:36;20.10;99.90
59703;DHT22;45570;48.782;8.332;2023-05-14T10:18:07;20.50;99.90
59703;DHT22;45570;48.782;8.332;2023-05-14T10:20:39;20.50;99.90
59703;DHT22;45570;48.782;8.332;2023-05-14T10:23:09;20.40;99.90
59703;DHT22;45570;48.782;8.332;2023-05-14T10:25:40;20.60;99.90
59703;DHT22;45570;48.782;8.332;2023-05-14T10:28:10;20.30;99.90
59703;DHT22;45570;48.782;8.332;2023-05-14T10:30:43;19.90;99.90
59703;DHT22;45570;48.782;8.332;2023-05-14T10:33:14;19.40;99.90
59703;DHT22;45570;48.782;8.332;2023-05-14T10:35:59;19.70;99.90
59703;DHT22;45570;48.782;8.332;2023-05-14T10:38:31;20.10;99.90
59703;DHT22;45570;48.782;8.332;2023-05-14T10:41:03;20.50;99.90
59703;DHT22;45570;48.782;8.332;2023-05-14T10:43:37;20.90;99.90
59703;DHT22;45570;48.782;8.332;2023-05-14T10:46:06;21.20;99.90
59703;DHT22;45570;48.782;8.332;2023-05-14T10:48:37;20.90;99.90
59703;DHT22;45570;48.782;8.332;2023-05-14T10:51:09;20.70;99.90
59703;DHT22;45570;48.782;8.332;2023-05-14T10:53:39;21.10;99.90
59703;DHT22;45570;48.782;8.332;2023-05-14T10:56:12;21.30;99.90
59703;DHT22;45570;48.782;8.332;2023-05-14T10:58:43;21.30;99.90
59703;DHT22;45570;48.782;8.332;2023-05-14T11:01:13;21.30;99.90
59703;DHT22;45570;48.782;8.332;2023-05-14T11:03:45;21.60;99.90
59703;DHT22;45570;48.782;8.332;2023-05-14T11:06:15;22.20;99.90
59703;DHT22;45570;48.782;8.332;2023-05-14T11:08:44;22.30;99.90
59703;DHT22;45570;48.782;8.332;2023-05-14T11:11:15;21.90;99.90
59703;DHT22;45570;48.782;8.332;2023-05-14T11:13:47;21.90;99.90
59703;DHT22;45570;48.782;8.332;2023-05-14T11:16:16;21.40;99.90
59703;DHT22;45570;48.782;8.332;2023-05-14T11:18:53;21.60;99.90
59703;DHT22;45570;48.782;8.332;2023-05-14T11:21:28;21.80;99.90
59703;DHT22;45570;48.782;8.332;2023-05-14T11:23:59;21.30;99.90
59703;DHT22;45570;48.782;8.332;2023-05-14T11:26:30;21.20;99.90
59703;DHT22;45570;48.782;8.332;2023-05-14T11:29:00;20.60;99.90
59703;DHT22;45570;48.782;8.332;2023-05-14T11:31:30;20.40;99.90
59703;DHT22;45570;48.782;8.332;2023-05-14T11:33:59;20.20;99.90
59703;DHT22;45570;48.782;8.332;2023-05-14T11:36:30;20.20;99.90
59703;DHT22;45570;48.782;8.332;2023-05-14T11:38:59;20.00;99.90
59703;DHT22;45570;48.782;8.332;2023-05-14T11:41:30;19.70;99.90
59703;DHT22;45570;48.782;8.332;2023-05-14T11:43:59;19.80;99.90
59703;DHT22;45570;48.782;8.332;2023-05-14T11:46:28;20.00;99.90
59703;DHT22;45570;48.782;8.332;2023-05-14T11:48:58;20.50;99.90
59703;DHT22;45570;48.782;8.332;2023-05-14T11:51:28;20.40;99.90
59703;DHT22;45570;48.782;8.332;2023-05-14T11:53:57;20.40;99.90
59703;DHT22;45570;48.782;8.332;2023-05-14T11:56:26;20.50;99.90
59703;DHT22;45570;48.782;8.332;2023-05-14T11:58:57;20.20;99.90
59703;DHT22;45570;48.782;8.332;2023-05-14T12:01:27;20.30;99.90
59703;DHT22;45570;48.782;8.332;2023-05-14T12:04:01;20.70;99.90
59703;DHT22;45570;48.782;8.332;2023-05-14T12:09:36;22.00;99.90
59703;DHT22;45570;48.782;8.332;2023-05-14T12:14:55;22.50;99.90
59703;DHT22;45570;48.782;8.332;2023-05-14T12:17:25;22.50;99.90
59703;DHT22;45570;48.782;8.332;2023-05-14T12:19:56;22.30;99.90
59703;DHT22;45570;48.782;8.332;2023-05-14T12:22:26;22.00;99.90
59703;DHT22;45570;48.782;8.332;2023-05-14T12:24:58;21.70;99.90
59703;DHT22;45570;48.782;8.332;2023-05-14T12:27:28;21.20;99.90
59703;DHT22;45570;48.782;8.332;2023-05-14T12:30:00;21.00;99.90
59703;DHT22;45570;48.782;8.332;2023-05-14T12:32:47;21.60;99.90
59703;DHT22;45570;48.782;8.332;2023-05-14T12:35:19;22.00;99.90
59703;DHT22;45570;48.782;8.332;2023-05-14T12:37:49;22.00;99.90
59703;DHT22;45570;48.782;8.332;2023-05-14T12:40:18;21.60;99.90
59703;DHT22;45570;48.782;8.332;2023-05-14T12:42:48;21.20;99.90
59703;DHT22;45570;48.782;8.332;2023-05-14T12:45:18;21.00;99.90
59703;DHT22;45570;48.782;8.332;2023-05-14T12:47:48;20.70;99.90
59703;DHT22;45570;48.782;8.332;2023-05-14T12:50:17;20.60;99.90
59703;DHT22;45570;48.782;8.332;2023-05-14T12:52:47;20.50;99.90
59703;DHT22;45570;48.782;8.332;2023-05-14T12:55:17;20.70;99.90
59703;DHT22;45570;48.782;8.332;2023-05-14T12:57:46;20.60;99.90
59703;DHT22;45570;48.782;8.332;2023-05-14T13:00:15;20.30;99.90
59703;DHT22;45570;48.782;8.332;2023-05-14T13:02:47;20.10;99.90
59703;DHT22;45570;48.782;8.332;2023-05-14T13:05:16;19.90;99.90
59703;DHT22;45570;48.782;8.332;2023-05-14T13:07:46;19.80;99.90
59703;DHT22;45570;48.782;8.332;2023-05-14T13:10:16;19.80;99.90
59703;DHT22;45570;48.782;8.332;2023-05-14T13:12:46;19.80;99.90
59703;DHT22;45570;48.782;8.332;2023-05-14T13:15:17;19.80;99.90
59703;DHT22;45570;48.782;8.332;2023-05-14T13:17:48;19.80;99.90
59703;DHT22;45570;48.782;8.332;2023-05-14T13:20:17;20.20;99.90
59703;DHT22;45570;48.782;8.332;2023-05-14T13:22:47;20.80;99.90
59703;DHT22;45570;48.782;8.332;2023-05-14T13:25:16;21.10;99.90
59703;DHT22;45570;48.782;8.332;2023-05-14T13:27:45;21.00;99.90
59703;DHT22;45570;48.782;8.332;2023-05-14T13:30:17;20.70;99.90
59703;DHT22;45570;48.782;8.332;2023-05-14T13:32:49;20.50;99.90
59703;DHT22;45570;48.782;8.332;2023-05-14T13:35:18;20.30;99.90
59703;DHT22;45570;48.782;8.332;2023-05-14T13:37:48;19.90;99.90
59703;DHT22;45570;48.782;8.332;2023-05-14T13:40:17;19.70;99.90
59703;DHT22;45570;48.782;8.332;2023-05-14T13:42:46;19.80;99.90
59703;DHT22;45570;48.782;8.332;2023-05-14T13:45:15;20.00;99.90
59703;DHT22;45570;48.782;8.332;2023-05-14T13:47:45;20.40;99.90
59703;DHT22;45570;48.782;8.332;2023-05-14T13:50:18;20.80;99.90
59703;DHT22;45570;48.782;8.332;2023-05-14T13:52:48;21.00;99.90
59703;DHT22;45570;48.782;8.332;2023-05-14T13:55:17;21.20;99.90
59703;DHT22;45570;48.782;8.332;2023-05-14T13:57:46;21.30;99.90
59703;DHT22;45570;48.782;8.332;2023-05-14T14:00:16;21.50;99.90
59703;DHT22;45570;48.782;8.332;2023-05-14T14:02:45;21.60;99.90
59703;DHT22;45570;48.782;8.332;2023-05-14T14:05:14;21.90;99.90
59703;DHT22;45570;48.782;8.332;2023-05-14T14:07:45;21.80;99.90
59703;DHT22;45570;48.782;8.332;2023-05-14T14:10:17;21.80;99.90
59703;DHT22;45570;48.782;8.332;2023-05-14T14:12:47;21.60;99.90
59703;DHT22;45570;48.782;8.332;2023-05-14T14:15:16;21.80;99.90
59703;DHT22;45570;48.782;8.332;2023-05-14T14:17:46;21.90;99.90
59703;DHT22;45570;48.782;8.332;2023-05-14T14:20:15;21.90;99.90
59703;DHT22;45570;48.782;8.332;2023-05-14T14:22:46;21.70;99.90
59703;DHT22;45570;48.782;8.332;2023-05-14T14:25:15;21.50;99.90
59703;DHT22;45570;48.782;8.332;2023-05-14T14:27:44;21.40;99.90
59703;DHT22;45570;48.782;8.332;2023-05-14T14:30:18;21.50;99.90
59703;DHT22;45570;48.782;8.332;2023-05-14T14:32:54;21.30;99.90
59703;DHT22;45570;48.782;8.332;2023-05-14T14:35:34;21.50;99.90
59703;DHT22;45570;48.782;8.332;2023-05-14T14:38:09;21.70;99.90
59703;DHT22;45570;48.782;8.332;2023-05-14T14:40:43;21.80;99.90
59703;DHT22;45570;48.782;8.332;2023-05-14T14:43:16;22.00;99.90
59703;DHT22;45570;48.782;8.332;2023-05-14T14:45:52;21.90;99.90
59703;DHT22;45570;48.782;8.332;2023-05-14T14:48:32;21.70;99.90
59703;DHT22;45570;48.782;8.332;2023-05-14T14:51:07;22.00;99.90
59703;DHT22;45570;48.782;8.332;2023-05-14T14:53:46;22.10;99.90
59703;DHT22;45570;48.782;8.332;2023-05-14T14:56:22;22.10;99.90
59703;DHT22;45570;48.782;8.332;2023-05-14T14:58:56;22.10;99.90
59703;DHT22;45570;48.782;8.332;2023-05-14T15:01:30;22.10;99.90
59703;DHT22;45570;48.782;8.332;2023-05-14T15:04:05;22.10;99.90
59703;DHT22;45570;48.782;8.332;2023-05-14T15:06:43;22.00;99.90
59703;DHT22;45570;48.782;8.332;2023-05-14T15:09:23;21.70;99.90
59703;DHT22;45570;48.782;8.332;2023-05-14T15:11:59;21.70;99.90
59703;DHT22;45570;48.782;8.332;2023-05-14T15:14:33;21.60;99.90
59703;DHT22;45570;48.782;8.332;2023-05-14T15:17:06;21.50;99.90
59703;DHT22;45570;48.782;8.332;2023-05-14T15:19:39;21.20;99.90
59703;DHT22;45570;48.782;8.332;2023-05-14T15:22:21;21.20;99.90
59703;DHT22;45570;48.782;8.332;2023-05-14T15:25:05;21.30;99.90
59703;DHT22;45570;48.782;8.332;2023-05-14T15:27:39;21.40;99.90
59703;DHT22;45570;48.782;8.332;2023-05-14T15:30:13;21.30;99.90
59703;DHT22;45570;48.782;8.332;2023-05-14T15:32:44;21.00;99.90
59703;DHT22;45570;48.782;8.332;2023-05-14T15:35:13;20.80;99.90
59703;DHT22;45570;48.782;8.332;2023-05-14T15:37:43;20.50;99.90
59703;DHT22;45570;48.782;8.332;2023-05-14T15:40:14;20.30;99.90
59703;DHT22;45570;48.782;8.332;2023-05-14T15:42:44;20.00;99.90
59703;DHT22;45570;48.782;8.332;2023-05-14T15:45:13;20.00;99.90
59703;DHT22;45570;48.782;8.332;2023-05-14T15:47:43;20.10;99.90
59703;DHT22;45570;48.782;8.332;2023-05-14T15:50:12;20.40;99.90
59703;DHT22;45570;48.782;8.332;2023-05-14T15:52:41;20.50;99.90
59703;DHT22;45570;48.782;8.332;2023-05-14T15:55:11;20.20;99.90
59703;DHT22;45570;48.782;8.332;2023-05-14T15:57:41;19.80;99.90
59703;DHT22;45570;48.782;8.332;2023-05-14T16:00:11;19.60;99.90